Time;durP1;ratioP1;P1;durP2;ratioP2;P2;SDS_P1;SDS_P2;PMS_P1;PMS_P2;Temp;Humidity;BMP_temperature;BMP_pressure;BME280_temperature;BME280_humidity;BME280_pressure;Samples;Min_cycle;Max_cycle;Signal;HPM_P1;HPM_P2
2024/01/19 00:03:20;;;;;;;11.88;6.88;;;;;;;12.89;97.29;99699.28;10293016;28;96828;-79
2024/01/19 00:08:25;;;;;;;12.43;6.95;;;;;;;12.89;97.44;99695.78;10292726;28;97234;-79
2024/01/19 00:13:29;;;;;;;;;;;;;;;12.80;97.51;99673.41;10255135;28;97129;-79
2024/01/19 00:18:32;;;;;;;10.02;5.85;;;;;;;12.74;96.61;99672.91;10279552;28;97282;-79
2024/01/19 00:23:37;;;;;;;13.98;5.95;;;;;;;12.74;97.05;99670.28;10292588;28;97063;-79
2024/01/19 00:28:40;;;;;;;;;;;;;;;12.75;96.48;99675.47;10292121;28;96920;-79
2024/01/19 00:33:44;;;;;;;10.00;5.40;;;;;;;12.82;96.08;99676.81;10298559;28;96720;-79
2024/01/19 00:38:49;;;;;;;10.65;4.55;;;;;;;12.83;95.46;99670.59;10299414;28;96900;-79
2024/01/19 00:43:52;;;;;;;;;;;;;;;12.83;94.65;99662.66;10299675;28;97029;-79
2024/01/19 00:48:56;;;;;;;7.97;4.35;;;;;;;12.79;95.48;99644.47;10269921;28;97100;-79
2024/01/19 00:54:01;;;;;;;14.03;5.40;;;;;;;12.80;95.38;99648.78;10297060;28;96808;-79
2024/01/19 00:59:05;;;;;;;8.57;5.32;;;;;;;12.81;95.97;99642.59;10264821;28;97220;-78
2024/01/19 01:04:08;;;;;;;9.20;5.28;;;;;;;12.82;95.70;99624.00;10258625;28;97213;-79
2024/01/19 01:09:13;;;;;;;8.20;5.05;;;;;;;12.84;95.47;99626.56;10281924;28;96640;-79
2024/01/19 01:14:17;;;;;;;7.30;4.70;;;;;;;12.82;95.51;99626.66;10265953;28;96706;-78
2024/01/19 01:19:20;;;;;;;6.75;4.45;;;;;;;12.78;95.07;99624.25;10224477;22;97119;-79
2024/01/19 01:24:25;;;;;;;6.60;3.90;;;;;;;12.73;95.20;99629.81;10226528;28;96718;-79
2024/01/19 01:29:29;;;;;;;6.60;4.07;;;;;;;12.78;94.63;99619.84;10256697;28;97162;-79
2024/01/19 01:34:32;;;;;;;6.43;4.30;;;;;;;12.82;94.55;99613.44;10256731;28;97222;-79
2024/01/19 01:39:37;;;;;;;5.22;3.67;;;;;;;12.79;93.95;99607.50;10256902;28;96659;-79
2024/01/19 01:44:41;;;;;;;6.45;4.13;;;;;;;12.79;93.68;99605.69;10220225;28;97452;-79
2024/01/19 01:49:45;;;;;;;7.10;3.60;;;;;;;12.76;94.07;99618.25;10216299;28;96827;-79
2024/01/19 01:54:52;;;;;;;7.00;3.70;;;;;;;12.78;93.62;99616.34;10216728;28;96933;-79
2024/01/19 01:59:56;;;;;;;8.13;4.05;;;;;;;12.74;94.00;99623.59;10224409;28;97582;-79
2024/01/19 02:04:59;;;;;;;6.47;4.00;;;;;;;12.71;94.22;99607.94;10215208;28;96729;-78
2024/01/19 02:10:05;;;;;;;5.57;3.60;;;;;;;12.71;94.17;99612.34;10215196;28;97266;-79
2024/01/19 02:15:18;;;;;;;6.53;3.88;;;;;;;12.68;94.10;99613.41;10215108;28;96935;-79
2024/01/19 02:20:22;;;;;;;6.47;3.75;;;;;;;12.73;94.39;99613.13;10214986;28;96610;-79
2024/01/19 02:25:27;;;;;;;8.52;4.28;;;;;;;12.64;94.61;99622.44;10214881;28;96941;-79
2024/01/19 02:30:32;;;;;;;6.88;4.28;;;;;;;12.65;94.47;99626.78;10214376;28;97130;-79
2024/01/19 02:35:35;;;;;;;6.13;3.80;;;;;;;12.63;94.39;99627.75;10215250;28;97320;-79
2024/01/19 02:40:41;;;;;;;8.25;3.85;;;;;;;12.71;94.09;99631.69;10214028;28;96946;-78
2024/01/19 02:45:44;;;;;;;4.88;3.20;;;;;;;12.66;93.98;99620.56;10214807;28;96746;-79
2024/01/19 02:50:48;;;;;;;6.38;3.22;;;;;;;12.59;93.24;99600.69;10234905;28;97788;-79
2024/01/19 02:55:53;;;;;;;8.52;4.07;;;;;;;12.48;94.12;99597.81;10220187;28;97267;-79
2024/01/19 03:00:59;;;;;;;7.60;4.05;;;;;;;12.44;94.59;99588.41;10212501;28;97586;-79
2024/01/19 03:06:03;;;;;;;9.65;4.80;;;;;;;12.33;94.78;99567.91;10220125;28;97067;-79
2024/01/19 03:11:08;;;;;;;9.03;4.90;;;;;;;12.27;95.19;99547.13;10244330;28;96683;-79
2024/01/19 03:16:12;;;;;;;4.97;3.72;;;;;;;12.32;95.08;99549.53;10212469;28;96576;-79
2024/01/19 03:21:17;;;;;;;6.18;4.13;;;;;;;12.25;95.01;99553.47;10213322;28;96926;-78
2024/01/19 03:26:22;;;;;;;8.32;3.92;;;;;;;12.27;94.58;99559.50;10213647;28;97334;-79
2024/01/19 03:31:26;;;;;;;6.60;3.10;;;;;;;12.31;93.95;99559.22;10213045;28;97086;-79
2024/01/19 03:36:29;;;;;;;3.95;2.25;;;;;;;12.36;92.93;99548.38;10213592;28;97095;-79
2024/01/19 03:41:34;;;;;;;4.45;2.20;;;;;;;12.38;91.98;99549.16;10213080;28;96844;-79
2024/01/19 03:46:37;;;;;;;4.20;2.33;;;;;;;12.39;92.06;99529.78;10212134;28;97765;-78
2024/01/19 03:51:59;;;;;;;4.07;2.35;;;;;;;12.38;92.35;99521.00;10190154;28;97580;-78
2024/01/19 03:57:07;;;;;;;2.70;1.75;;;;;;;12.33;92.11;99530.13;10180115;28;96663;-79
2024/01/19 04:02:11;;;;;;;4.13;2.25;;;;;;;12.31;91.64;99532.84;10212201;28;96775;-78
2024/01/19 04:07:14;;;;;;;2.87;1.70;;;;;;;12.41;91.20;99539.28;10216315;28;96955;-78
2024/01/19 04:12:19;;;;;;;2.60;1.50;;;;;;;12.47;90.58;99532.78;10218764;28;97143;-79
2024/01/19 04:17:23;;;;;;;3.25;1.90;;;;;;;12.47;90.50;99511.69;10219126;28;97270;-78
2024/01/19 04:22:26;;;;;;;3.78;1.92;;;;;;;12.40;89.76;99489.25;10218426;28;97306;-78
2024/01/19 04:27:31;;;;;;;3.88;1.52;;;;;;;12.39;89.74;99488.38;10219330;28;96934;-78
2024/01/19 04:32:35;;;;;;;2.85;1.50;;;;;;;12.39;88.71;99474.38;10219039;28;97162;-78
2024/01/19 04:37:39;;;;;;;4.38;1.67;;;;;;;12.38;88.73;99460.31;10218400;28;97074;-78
2024/01/19 04:42:44;;;;;;;3.78;1.52;;;;;;;12.36;88.77;99467.47;10217250;28;96644;-78
2024/01/19 04:47:47;;;;;;;2.28;1.50;;;;;;;12.32;88.18;99465.13;10217914;28;96762;-78
2024/01/19 04:52:51;;;;;;;2.75;1.75;;;;;;;12.35;88.17;99465.78;10217936;28;96936;-78
2024/01/19 04:57:56;;;;;;;3.50;1.60;;;;;;;12.36;87.57;99442.88;10218121;28;97104;-78
2024/01/19 05:03:01;;;;;;;2.20;1.38;;;;;;;12.32;87.68;99434.28;10185639;28;96797;-78
2024/01/19 05:08:04;;;;;;;;;;;;;;;12.28;87.30;99424.88;10240287;28;96621;-78
2024/01/19 05:13:09;;;;;;;3.55;1.30;;;;;;;12.31;87.49;99437.00;10255888;28;96965;-78
2024/01/19 05:18:13;;;;;;;2.60;1.48;;;;;;;12.33;87.11;99462.38;10216876;28;96659;-78
2024/01/19 05:23:16;;;;;;;2.33;1.20;;;;;;;12.34;86.38;99461.44;10233578;28;96702;-78
2024/01/19 05:28:22;;;;;;;2.47;1.60;;;;;;;12.39;86.36;99458.53;10257026;28;97155;-79
2024/01/19 05:33:25;;;;;;;2.67;1.40;;;;;;;12.35;86.29;99452.59;10255850;28;97629;-78
2024/01/19 05:38:29;;;;;;;2.67;1.30;;;;;;;12.35;86.45;99457.00;10225030;28;97069;-78
2024/01/19 05:43:34;;;;;;;1.88;1.38;;;;;;;12.39;86.15;99458.53;10256262;28;96575;-78
2024/01/19 05:48:37;;;;;;;2.05;1.10;;;;;;;12.35;85.55;99464.91;10229155;28;96666;-78
2024/01/19 05:53:41;;;;;;;2.95;1.40;;;;;;;12.38;85.72;99460.31;10216215;28;96691;-78
2024/01/19 05:58:46;;;;;;;2.80;1.23;;;;;;;12.34;85.54;99448.22;10216386;28;97439;-78
2024/01/19 06:03:50;;;;;;;1.77;1.10;;;;;;;12.31;86.07;99440.50;10215819;28;96766;-78
2024/01/19 06:08:53;;;;;;;2.30;0.90;;;;;;;12.29;86.01;99433.63;10215619;28;96658;-78
2024/01/19 06:13:58;;;;;;;1.38;1.10;;;;;;;12.28;86.17;99429.28;10215460;28;96798;-78
2024/01/19 06:19:02;;;;;;;2.85;1.10;;;;;;;12.28;85.93;99431.94;10214352;28;96888;-78
2024/01/19 06:24:06;;;;;;;2.97;1.37;;;;;;;12.25;85.22;99427.69;10213962;28;97465;-78
2024/01/19 06:29:11;;;;;;;3.25;1.48;;;;;;;12.30;85.69;99436.19;10213811;28;96910;-78
2024/01/19 06:34:15;;;;;;;1.60;1.00;;;;;;;12.28;85.88;99442.47;10254700;28;96655;-78
2024/01/19 06:39:18;;;;;;;2.10;1.20;;;;;;;12.21;86.20;99451.69;10254484;28;96779;-78
2024/01/19 06:44:23;;;;;;;2.22;1.10;;;;;;;12.19;85.93;99459.69;10253817;28;97258;-77
2024/01/19 06:49:27;;;;;;;1.33;0.90;;;;;;;12.19;86.00;99456.22;10214672;28;97525;-78
2024/01/19 06:54:30;;;;;;;2.80;1.10;;;;;;;12.22;85.98;99463.97;10213963;28;96759;-78
2024/01/19 06:59:35;;;;;;;2.10;0.98;;;;;;;12.20;86.04;99479.03;10214658;28;96735;-78
2024/01/19 07:04:39;;;;;;;2.50;1.17;;;;;;;12.20;85.00;99487.75;10214252;28;96892;-78
2024/01/19 07:09:43;;;;;;;1.83;1.17;;;;;;;12.26;85.22;99494.47;10213153;28;97239;-78
2024/01/19 07:14:48;;;;;;;2.08;1.00;;;;;;;12.31;84.65;99492.41;10211877;28;97096;-78
2024/01/19 07:19:51;;;;;;;1.65;1.00;;;;;;;12.28;85.05;99496.09;10212905;28;96704;-78
2024/01/19 07:24:55;;;;;;;1.23;0.87;;;;;;;12.32;84.69;99512.59;10213775;28;96750;-78
2024/01/19 07:30:00;;;;;;;1.05;0.82;;;;;;;12.28;83.76;99503.16;10212462;28;96683;-78
2024/01/19 07:35:05;;;;;;;1.48;0.80;;;;;;;12.35;83.97;99502.72;10212827;28;96608;-78
2024/01/19 07:40:09;;;;;;;1.30;0.98;;;;;;;12.36;84.19;99503.53;10215723;28;96987;-78
2024/01/19 07:45:14;;;;;;;1.42;0.90;;;;;;;12.35;84.18;99510.63;10219582;28;97019;-78
2024/01/19 07:50:18;;;;;;;;;;;;;;;12.35;83.13;99517.69;10220981;28;97076;-78
2024/01/19 07:55:21;;;;;;;0.82;0.60;;;;;;;12.40;83.46;99531.47;10228461;28;96803;-78
2024/01/19 08:00:26;;;;;;;0.85;0.70;;;;;;;12.41;83.29;99527.91;10248307;28;97379;-78
2024/01/19 08:05:30;;;;;;;0.98;0.60;;;;;;;12.40;83.04;99518.25;10218280;28;96694;-78
2024/01/19 08:10:35;;;;;;;1.30;0.77;;;;;;;12.40;81.60;99516.47;10219100;28;96615;-78
2024/01/19 08:15:40;;;;;;;1.10;0.75;;;;;;;12.36;81.46;99522.00;10218921;28;97070;-78
2024/01/19 08:20:44;;;;;;;1.35;0.77;;;;;;;12.34;81.60;99537.94;10218859;28;97265;-78
2024/01/19 08:25:47;;;;;;;1.67;0.90;;;;;;;12.34;81.32;99542.38;10218368;28;96711;-78
2024/01/19 08:30:52;;;;;;;0.68;0.65;;;;;;;12.35;81.24;99555.47;10218932;28;96675;-78
2024/01/19 08:35:56;;;;;;;1.20;0.70;;;;;;;12.35;80.27;99552.84;10218308;28;96628;-78
2024/01/19 08:41:00;;;;;;;1.67;0.80;;;;;;;12.40;80.99;99563.97;10218868;28;97248;-78
2024/01/19 08:46:05;;;;;;;2.25;0.80;;;;;;;12.33;81.04;99564.41;10224936;28;97432;-78
2024/01/19 08:51:09;;;;;;;0.68;0.55;;;;;;;12.42;80.12;99569.16;10245402;28;97113;-78
2024/01/19 08:56:12;;;;;;;0.68;0.50;;;;;;;12.38;79.57;99579.03;10216671;28;96649;-78
2024/01/19 09:01:20;;;;;;;2.13;0.60;;;;;;;12.41;78.50;99584.13;10217710;28;96989;-78
2024/01/19 09:06:24;;;;;;;0.75;0.50;;;;;;;12.46;78.41;99586.53;10251287;28;97374;-78
2024/01/19 09:11:28;;;;;;;0.50;0.50;;;;;;;12.40;77.27;99595.63;10257593;28;97270;-78
2024/01/19 09:16:32;;;;;;;0.73;0.40;;;;;;;12.41;77.32;99599.97;10227552;28;96825;-78
2024/01/19 09:21:36;;;;;;;0.25;0.20;;;;;;;12.46;76.38;99603.19;10217492;28;96604;-78
2024/01/19 09:26:40;;;;;;;0.82;0.52;;;;;;;12.43;75.73;99620.97;10216355;28;97615;-78
2024/01/19 09:31:47;;;;;;;1.45;0.68;;;;;;;12.52;75.99;99617.81;10217220;28;96766;-78
2024/01/19 09:36:51;;;;;;;0.57;0.47;;;;;;;12.58;75.26;99634.16;10217179;28;96718;-78
2024/01/19 09:42:03;;;;;;;1.02;0.70;;;;;;;12.64;75.00;99635.63;10215959;28;96858;-78
2024/01/19 09:47:18;;;;;;;0.60;0.57;;;;;;;12.62;74.43;99650.66;10214606;28;97174;-78
2024/01/19 09:52:31;;;;;;;1.80;0.73;;;;;;;12.68;74.00;99663.56;10215866;28;96870;-78
2024/01/19 09:57:42;;;;;;;1.50;0.60;;;;;;;12.82;73.95;99671.53;10251704;28;97290;-78
2024/01/19 10:02:48;;;;;;;1.50;0.70;;;;;;;12.92;74.42;99682.41;10235053;28;97064;-78
2024/01/19 10:07:55;;;;;;;0.95;0.68;;;;;;;12.89;74.28;99680.81;10215425;28;96696;-78
2024/01/19 10:12:59;;;;;;;1.15;0.70;;;;;;;12.79;73.32;99687.53;10215177;28;96721;-78
2024/01/19 10:18:05;;;;;;;3.85;1.75;;;;;;;12.76;73.63;99684.25;10215090;28;97302;-78
2024/01/19 10:23:23;;;;;;;2.25;1.45;;;;;;;12.64;72.74;99698.97;10215319;28;96837;-78
2024/01/19 10:28:33;;;;;;;0.73;0.60;;;;;;;12.65;72.47;99692.78;10215281;28;97164;-78
2024/01/19 10:33:38;;;;;;;2.15;0.93;;;;;;;12.74;71.98;99702.78;10214446;28;96609;-78
2024/01/19 10:38:41;;;;;;;;;;;;;;;12.87;71.58;99706.44;10213968;28;96708;-78
2024/01/19 10:43:45;;;;;;;1.60;0.80;;;;;;;12.81;70.24;99701.50;10214785;28;97444;-78
2024/01/19 10:48:50;;;;;;;1.40;1.00;;;;;;;12.93;70.82;99710.53;10214172;28;96587;-78
2024/01/19 10:54:02;;;;;;;1.77;0.90;;;;;;;12.90;69.80;99722.09;10213744;28;96650;-78
2024/01/19 10:59:13;;;;;;;1.20;0.75;;;;;;;12.87;70.35;99717.00;10214447;28;97255;-78
2024/01/19 11:04:18;;;;;;;1.45;0.70;;;;;;;12.78;70.68;99728.09;10214076;28;96768;-78
2024/01/19 11:09:21;;;;;;;1.20;0.70;;;;;;;12.71;69.99;99715.31;10213640;28;96795;-78
2024/01/19 11:14:27;;;;;;;0.60;0.50;;;;;;;12.65;68.94;99705.97;10213351;28;97420;-78
2024/01/19 11:19:33;;;;;;;1.02;0.40;;;;;;;12.67;67.63;99706.72;10213901;28;97210;-78
2024/01/19 11:24:38;;;;;;;0.88;0.30;;;;;;;12.94;66.82;99735.97;10213340;28;96576;-78
2024/01/19 11:29:44;;;;;;;0.70;0.50;;;;;;;13.17;66.83;99740.78;10211761;28;97364;-78
2024/01/19 11:34:50;;;;;;;1.58;0.65;;;;;;;13.06;66.18;99736.13;10212800;28;97266;-78
2024/01/19 11:39:54;;;;;;;0.75;0.52;;;;;;;12.86;66.04;99728.47;10212779;28;96762;-78
2024/01/19 11:44:57;;;;;;;1.75;0.60;;;;;;;12.85;66.14;99737.34;10212327;28;96902;-78
2024/01/19 11:50:04;;;;;;;0.95;0.50;;;;;;;13.09;66.03;99748.28;10212780;28;96694;-78
2024/01/19 11:55:36;;;;;;;0.68;0.50;;;;;;;13.28;65.47;99749.78;10212661;28;96637;-78
2024/01/19 12:00:40;;;;;;;1.13;0.60;;;;;;;13.56;64.95;99741.06;10211941;28;96654;-78
2024/01/19 12:05:45;;;;;;;0.43;0.32;;;;;;;13.46;64.93;99751.34;10212688;28;97323;-78
2024/01/19 12:11:00;;;;;;;1.33;0.77;;;;;;;13.46;65.10;99753.16;10224444;28;96597;-78
2024/01/19 12:16:04;;;;;;;1.45;0.80;;;;;;;13.53;64.41;99750.06;10201059;28;96858;-78
2024/01/19 12:21:10;;;;;;;0.50;0.47;;;;;;;13.62;64.43;99752.13;10170656;28;96674;-78
2024/01/19 12:26:20;;;;;;;2.10;0.95;;;;;;;13.64;64.05;99749.38;10174381;28;96780;-78
2024/01/19 12:31:26;;;;;;;0.65;0.60;;;;;;;13.58;63.46;99742.69;10218846;28;97380;-78
2024/01/19 12:36:31;;;;;;;1.10;0.68;;;;;;;13.64;63.70;99746.75;10218044;28;96774;-78
2024/01/19 12:41:34;;;;;;;1.20;0.63;;;;;;;13.70;63.13;99746.38;10218250;28;97477;-78
2024/01/19 12:46:46;;;;;;;2.53;0.90;;;;;;;13.74;63.56;99753.19;10218125;28;96793;-78
2024/01/19 12:51:52;;;;;;;1.40;0.60;;;;;;;13.85;62.99;99753.38;10217572;28;96777;-78
2024/01/19 12:56:55;;;;;;;;;;;;;;;13.90;62.45;99753.13;10218814;28;96682;-78
2024/01/19 13:01:58;;;;;;;1.13;0.73;;;;;;;14.04;62.79;99755.81;10231755;28;96792;-79
2024/01/19 13:07:04;;;;;;;0.93;0.80;;;;;;;14.13;62.54;99756.09;10257513;28;96805;-78
2024/01/19 13:12:10;;;;;;;1.52;0.90;;;;;;;14.14;61.54;99749.00;10217405;28;96831;-78
2024/01/19 13:17:24;;;;;;;1.08;0.73;;;;;;;14.20;60.90;99744.16;10183460;28;96907;-78
2024/01/19 13:22:28;;;;;;;0.75;0.55;;;;;;;14.25;61.61;99747.38;10177141;28;97321;-78
2024/01/19 13:27:34;;;;;;;1.27;0.80;;;;;;;14.20;60.95;99748.59;10176666;28;96732;-78
2024/01/19 13:32:37;;;;;;;1.33;0.85;;;;;;;14.15;60.34;99748.03;10177029;28;96950;-78
2024/01/19 13:37:43;;;;;;;1.17;0.88;;;;;;;14.45;60.39;99754.06;10206049;28;97513;-78
2024/01/19 13:42:47;;;;;;;1.58;0.90;;;;;;;15.51;56.64;99734.69;10216152;28;97313;-78
2024/01/19 13:47:51;;;;;;;1.48;0.80;;;;;;;16.81;53.62;99740.38;10259954;22;96874;-78
2024/01/19 13:52:56;;;;;;;1.20;0.80;;;;;;;17.08;52.13;99749.94;10279775;28;99466;-79
2024/01/19 13:58:00;;;;;;;1.02;0.80;;;;;;;17.37;50.96;99738.84;10255950;28;96618;-78
2024/01/19 14:03:04;;;;;;;0.52;0.45;;;;;;;17.44;50.03;99737.41;10277895;28;97507;-78
2024/01/19 14:08:12;;;;;;;0.95;0.63;;;;;;;16.42;51.31;99747.72;10255889;28;97422;-78
2024/01/19 14:13:15;;;;;;;1.38;0.88;;;;;;;15.83;52.24;99747.44;10255677;28;96668;-78
2024/01/19 14:18:19;;;;;;;0.93;0.60;;;;;;;15.33;52.45;99752.69;10255706;28;97124;-78
2024/01/19 14:23:23;;;;;;;0.95;0.50;;;;;;;15.03;52.50;99761.75;10255381;28;96733;-78
2024/01/19 14:28:28;;;;;;;2.45;0.73;;;;;;;14.94;52.68;99763.22;10281688;28;96716;-78
2024/01/19 14:33:32;;;;;;;0.97;0.80;;;;;;;15.32;53.07;99756.25;10295422;28;96759;-78
2024/01/19 14:38:36;;;;;;;1.02;0.63;;;;;;;15.52;51.06;99769.06;10296177;28;96730;-78
2024/01/19 14:43:41;;;;;;;0.63;0.40;;;;;;;16.32;50.27;99762.59;10261441;28;97190;-78
2024/01/19 14:48:48;;;;;;;0.77;0.40;;;;;;;16.85;48.50;99751.63;10253006;28;97231;-78
2024/01/19 14:53:53;;;;;;;0.73;0.68;;;;;;;17.17;47.84;99760.75;10253311;28;96631;-78
2024/01/19 14:58:57;;;;;;;1.20;0.60;;;;;;;17.12;47.04;99764.72;10254327;28;96812;-78
2024/01/19 15:04:00;;;;;;;2.60;0.67;;;;;;;17.14;47.52;99776.91;10254466;28;96709;-78
2024/01/19 15:09:06;;;;;;;0.90;0.70;;;;;;;17.24;46.52;99793.91;10253607;28;97234;-78
2024/01/19 15:14:10;;;;;;;0.85;0.60;;;;;;;17.35;46.15;99798.41;10253296;28;96903;-78
2024/01/19 15:19:14;;;;;;;1.90;0.93;;;;;;;17.17;45.84;99807.75;10253850;28;96591;-78
2024/01/19 15:24:19;;;;;;;0.85;0.60;;;;;;;17.45;44.77;99813.56;10253678;28;96804;-78
2024/01/19 15:29:23;;;;;;;0.80;0.52;;;;;;;17.46;45.34;99830.38;10254078;28;97110;-79
2024/01/19 15:34:26;;;;;;;0.80;0.52;;;;;;;17.60;44.81;99844.41;10253866;28;97292;-78
2024/01/19 15:39:31;;;;;;;1.20;0.60;;;;;;;17.75;44.34;99848.56;10290081;28;97143;-78
2024/01/19 15:44:35;;;;;;;1.60;0.70;;;;;;;17.75;44.76;99861.88;10251841;28;96668;-78
2024/01/19 15:49:39;;;;;;;0.73;0.53;;;;;;;18.16;44.34;99878.22;10253220;28;96933;-78
2024/01/19 15:54:45;;;;;;;1.52;0.77;;;;;;;18.15;44.61;99884.53;10289659;28;96697;-78
2024/01/19 15:59:49;;;;;;;1.85;1.10;;;;;;;17.33;45.09;99893.44;10294667;28;96695;-78
2024/01/19 16:04:53;;;;;;;1.13;0.70;;;;;;;17.31;45.36;99898.84;10300393;28;96736;-78
2024/01/19 16:09:58;;;;;;;1.15;0.73;;;;;;;17.08;45.29;99912.13;10299342;28;97255;-78
2024/01/19 16:15:01;;;;;;;1.10;0.90;;;;;;;16.91;45.20;99921.31;10299865;28;97812;-78
2024/01/19 16:20:07;;;;;;;1.27;0.88;;;;;;;17.40;45.15;99930.09;10300888;28;96838;-78
2024/01/19 16:25:12;;;;;;;1.27;1.00;;;;;;;17.13;45.38;99939.22;10291047;28;96627;-78
2024/01/19 16:30:16;;;;;;;2.00;0.70;;;;;;;16.95;45.77;99955.53;10259220;28;96676;-78
2024/01/19 16:35:19;;;;;;;1.08;0.70;;;;;;;16.47;47.14;99961.59;10261890;28;96628;-78
2024/01/19 16:40:34;;;;;;;1.00;0.80;;;;;;;16.26;47.46;99976.28;10322465;28;97451;-78
2024/01/19 16:45:38;;;;;;;1.60;0.95;;;;;;;16.03;48.29;99989.38;10262234;28;96973;-78
2024/01/19 16:50:41;;;;;;;2.22;1.25;;;;;;;15.70;48.87;100001.22;10258486;28;97248;-78
2024/01/19 16:55:47;;;;;;;2.53;1.50;;;;;;;15.58;50.13;100009.97;10258390;28;97866;-78
2024/01/19 17:00:51;;;;;;;2.35;1.30;;;;;;;15.21;52.75;100026.47;10279201;28;96729;-78
2024/01/19 17:05:55;;;;;;;3.13;1.40;;;;;;;15.09;52.69;100034.31;10298471;28;97160;-78
2024/01/19 17:11:00;;;;;;;3.45;1.77;;;;;;;14.96;52.81;100046.59;10298744;28;96966;-78
2024/01/19 17:16:04;;;;;;;2.40;1.50;;;;;;;14.83;53.39;100059.75;10290420;28;97392;-78
2024/01/19 17:21:08;;;;;;;4.05;2.10;;;;;;;14.49;54.33;100067.97;10257545;28;96738;-78
2024/01/19 17:26:13;;;;;;;5.45;2.50;;;;;;;14.05;56.68;100090.84;10256113;28;96982;-78
2024/01/19 17:31:19;;;;;;;4.57;2.85;;;;;;;13.83;57.13;100092.97;10257036;28;96640;-78
2024/01/19 17:36:25;;;;;;;8.05;3.63;;;;;;;13.40;59.38;100091.78;10257838;28;96588;-78
2024/01/19 17:41:30;;;;;;;6.63;3.58;;;;;;;13.07;61.22;100104.16;10273149;28;97289;-78
2024/01/19 17:46:33;;;;;;;7.22;3.85;;;;;;;12.86;61.94;100119.31;10296058;28;98018;-78
2024/01/19 17:51:38;;;;;;;9.18;4.45;;;;;;;12.58;63.30;100127.72;10277170;28;97149;-78
2024/01/19 17:56:43;;;;;;;7.95;4.38;;;;;;;12.45;63.29;100123.13;10256417;28;97215;-78
2024/01/19 18:01:46;;;;;;;5.95;3.00;;;;;;;12.42;62.58;100132.06;10256979;28;97557;-77
2024/01/19 18:06:50;;;;;;;5.97;3.00;;;;;;;12.53;62.16;100148.22;10260698;28;96833;-78
2024/01/19 18:11:55;;;;;;;8.17;3.47;;;;;;;12.39;62.92;100168.31;10296407;28;96645;-78
2024/01/19 18:16:59;;;;;;;4.82;3.10;;;;;;;12.38;62.73;100179.78;10294688;28;96637;-78
2024/01/19 18:22:03;;;;;;;6.45;3.88;;;;;;;12.30;63.21;100187.22;10297514;28;96835;-79
2024/01/19 18:27:08;;;;;;;12.40;6.65;;;;;;;12.25;63.85;100198.00;10265460;28;96893;-78
2024/01/19 18:32:12;;;;;;;10.52;5.65;;;;;;;12.22;64.22;100202.56;10312084;28;96729;-78
2024/01/19 18:37:16;;;;;;;10.60;5.68;;;;;;;12.16;64.26;100219.53;10339614;28;96612;-78
2024/01/19 18:42:21;;;;;;;15.98;6.80;;;;;;;12.10;64.79;100232.16;10298043;28;96793;-78
2024/01/19 18:47:25;;;;;;;14.25;6.15;;;;;;;12.03;64.95;100246.53;10257401;28;96981;-79
2024/01/19 18:52:28;;;;;;;10.15;5.93;;;;;;;12.01;65.20;100258.94;10258733;28;96725;-78
2024/01/19 18:57:34;;;;;;;9.40;5.18;;;;;;;11.81;65.51;100269.50;10257658;28;96778;-79
2024/01/19 19:02:37;;;;;;;8.80;5.38;;;;;;;11.82;65.86;100284.41;10257683;28;96821;-78
2024/01/19 19:07:42;;;;;;;13.52;5.70;;;;;;;11.74;66.59;100299.69;10256197;28;96691;-78
2024/01/19 19:12:47;;;;;;;16.77;6.70;;;;;;;11.61;66.79;100316.97;10257557;28;96781;-79
2024/01/19 19:17:51;;;;;;;13.55;6.72;;;;;;;11.56;67.16;100327.72;10257119;28;96671;-78
2024/01/19 19:22:58;;;;;;;12.87;7.20;;;;;;;11.59;67.20;100324.09;10256590;28;96700;-79
2024/01/19 19:28:04;;;;;;;13.45;5.82;;;;;;;11.24;68.50;100338.72;10278994;28;96819;-79
2024/01/19 19:33:08;;;;;;;10.68;5.55;;;;;;;11.25;68.88;100349.19;10305713;28;96807;-78
2024/01/19 19:38:12;;;;;;;10.32;5.50;;;;;;;11.27;69.16;100344.72;10256428;28;96708;-79
2024/01/19 19:43:17;;;;;;;13.35;7.88;;;;;;;11.21;69.05;100355.53;10288807;28;96993;-78
2024/01/19 19:48:20;;;;;;;10.82;6.65;;;;;;;11.13;68.79;100370.75;10294813;28;96843;-78
2024/01/19 19:53:26;;;;;;;12.45;6.68;;;;;;;11.04;69.45;100380.78;10256477;28;97179;-76
2024/01/19 19:58:31;;;;;;;12.75;6.43;;;;;;;10.78;71.58;100391.47;10276813;28;97332;-83
2024/01/19 20:03:38;;;;;;;12.02;6.45;;;;;;;10.60;72.30;100402.69;10278427;28;98589;-81
2024/01/19 20:08:42;;;;;;;14.05;6.38;;;;;;;10.62;71.60;100401.72;10273291;28;97406;-81
2024/01/19 20:13:49;;;;;;;15.00;7.28;;;;;;;10.58;71.58;100420.28;10273689;28;97176;-86
2024/01/19 20:18:52;;;;;;;17.90;7.38;;;;;;;10.33;72.98;100428.25;10284192;28;96854;-87
2024/01/19 20:23:56;;;;;;;16.30;7.75;;;;;;;10.37;73.30;100444.78;10272118;28;97143;-80
2024/01/19 20:29:01;;;;;;;18.20;7.78;;;;;;;10.25;73.72;100453.94;10270047;28;96834;-86
2024/01/19 20:34:05;;;;;;;18.55;8.50;;;;;;;10.03;74.79;100460.84;10279328;28;97658;-83
2024/01/19 20:39:09;;;;;;;12.77;7.15;;;;;;;9.94;77.43;100458.53;10267853;28;98067;-81
2024/01/19 20:44:14;;;;;;;14.90;7.55;;;;;;;9.92;76.62;100465.59;10269825;28;96841;-81
2024/01/19 20:49:17;;;;;;;;;;;;;;;9.95;76.27;100468.97;10275598;28;97833;-82
2024/01/19 20:54:24;;;;;;;12.57;6.13;;;;;;;9.95;75.07;100478.66;10278739;28;99184;-81
2024/01/19 20:59:29;;;;;;;16.10;7.53;;;;;;;9.83;75.58;100497.47;10280789;28;98747;-82
2024/01/19 21:04:33;;;;;;;15.63;7.57;;;;;;;9.66;77.23;100505.88;10287277;28;97340;-83
2024/01/19 21:09:37;;;;;;;14.00;6.97;;;;;;;9.60;77.42;100505.22;10285617;28;96744;-81
2024/01/19 21:14:44;;;;;;;13.07;5.78;;;;;;;9.45;78.70;100514.44;10287846;28;96817;-81
2024/01/19 21:19:48;;;;;;;9.55;5.70;;;;;;;9.40;78.87;100521.59;10277201;28;97164;-82
2024/01/19 21:24:52;;;;;;;9.57;5.17;;;;;;;9.43;78.06;100539.03;10287225;28;96849;-82
2024/01/19 21:29:58;;;;;;;9.18;4.57;;;;;;;9.55;77.17;100541.28;10274385;28;96801;-81
2024/01/19 21:35:01;;;;;;;11.40;5.22;;;;;;;9.68;76.52;100543.47;10281783;28;96778;-85
2024/01/19 21:40:08;;;;;;;9.13;4.35;;;;;;;9.80;75.61;100545.72;10285466;28;96800;-85
2024/01/19 21:45:14;;;;;;;9.85;5.22;;;;;;;9.55;78.08;100557.91;10285032;28;96783;-82
2024/01/19 21:50:18;;;;;;;8.02;5.28;;;;;;;9.50;77.70;100565.03;10282063;28;96810;-82
2024/01/19 21:55:22;;;;;;;9.70;5.50;;;;;;;9.46;79.29;100570.44;10282079;28;96768;-83
2024/01/19 22:00:28;;;;;;;13.90;5.57;;;;;;;9.46;78.51;100589.72;10266787;28;99022;-83
2024/01/19 22:05:32;;;;;;;12.85;6.07;;;;;;;9.63;77.56;100592.69;10259831;28;98711;-82
2024/01/19 22:10:35;;;;;;;10.40;5.65;;;;;;;9.52;77.37;100602.66;10267002;28;97086;-83
2024/01/19 22:15:42;;;;;;;12.35;5.75;;;;;;;9.41;79.47;100611.75;10291149;28;97171;-82
2024/01/19 22:20:45;;;;;;;10.80;6.13;;;;;;;9.35;79.36;100618.03;10286698;28;96903;-82
2024/01/19 22:25:49;;;;;;;10.88;5.70;;;;;;;9.25;81.05;100621.84;10287101;28;99027;-82
2024/01/19 22:30:55;;;;;;;11.73;6.22;;;;;;;9.18;80.62;100636.00;10290885;28;96787;-82
2024/01/19 22:36:01;;;;;;;13.70;6.22;;;;;;;9.14;81.29;100629.97;10295352;28;96856;-82
2024/01/19 22:41:17;;;;;;;9.95;6.00;;;;;;;9.34;79.86;100637.34;10290813;28;98859;-76
2024/01/19 22:46:22;;;;;;;10.50;5.82;;;;;;;9.32;79.34;100639.16;10290490;28;98027;-76
2024/01/19 22:51:26;;;;;;;9.55;5.18;;;;;;;9.29;78.99;100651.50;10285872;28;97973;-76
2024/01/19 22:56:29;;;;;;;9.88;5.40;;;;;;;9.26;79.39;100675.22;10291527;28;97075;-76
2024/01/19 23:01:35;;;;;;;10.57;6.18;;;;;;;9.42;79.08;100679.13;10283649;28;98066;-76
2024/01/19 23:06:38;;;;;;;10.63;6.13;;;;;;;9.43;78.67;100689.63;10293818;28;97041;-76
2024/01/19 23:11:42;;;;;;;10.63;4.95;;;;;;;9.40;79.27;100704.59;10288526;28;97022;-77
2024/01/19 23:16:47;;;;;;;9.15;5.30;;;;;;;9.64;78.37;100701.28;10290515;28;97844;-77
2024/01/19 23:21:51;;;;;;;6.78;4.45;;;;;;;9.77;77.03;100713.16;10284497;28;97094;-77
2024/01/19 23:26:55;;;;;;;6.40;4.20;;;;;;;9.86;75.30;100720.75;10291018;28;97138;-77
2024/01/19 23:32:01;;;;;;;7.65;4.03;;;;;;;9.95;74.79;100736.28;10287057;28;98970;-77
2024/01/19 23:37:07;;;;;;;7.20;4.05;;;;;;;9.90;74.90;100741.66;10284600;28;97372;-77